createdAt,value
2022-08-03T00:00:26.707Z,20.34
2022-08-03T00:02:53.896Z,20.13
2022-08-03T00:05:21.053Z,20.34
2022-08-03T00:07:48.599Z,20.26
2022-08-03T00:10:31.960Z,20.33
2022-08-03T00:12:58.809Z,20.25
2022-08-03T00:15:25.752Z,20.19
2022-08-03T00:17:54.098Z,19.91
2022-08-03T00:20:24.742Z,20.04
2022-08-03T00:22:52.265Z,20.15
2022-08-03T00:25:19.208Z,20.05
2022-08-03T00:27:46.150Z,20.03
2022-08-03T00:30:16.839Z,20.04
2022-08-03T00:32:45.247Z,20.05
2022-08-03T00:35:28.058Z,20.03
2022-08-03T00:38:00.041Z,20.05
2022-08-03T00:40:27.504Z,20.08
2022-08-03T00:43:00.975Z,20.07
2022-08-03T00:46:00.906Z,20.14
2022-08-03T00:48:33.144Z,20.17
2022-08-03T00:51:01.068Z,20.22
2022-08-03T00:53:28.075Z,20.21
2022-08-03T00:55:55.011Z,20.22
2022-08-03T00:58:21.860Z,20.08
2022-08-03T01:01:06.774Z,20.28
2022-08-03T01:03:33.717Z,20.21
2022-08-03T01:06:16.997Z,20.23
2022-08-03T01:09:16.481Z,20.37
2022-08-03T01:12:04.195Z,20.40
2022-08-03T01:14:41.620Z,20.24
2022-08-03T01:17:19.356Z,20.22
2022-08-03T01:19:46.208Z,20.35
2022-08-03T01:22:44.964Z,20.31
2022-08-03T01:25:54.195Z,20.40
2022-08-03T01:28:27.350Z,20.35
2022-08-03T01:30:58.955Z,20.35
2022-08-03T01:33:35.143Z,20.18
2022-08-03T01:36:13.184Z,20.06
2022-08-03T01:38:47.789Z,20.12
2022-08-03T01:41:20.534Z,20.08
2022-08-03T01:44:28.397Z,20.07
2022-08-03T01:46:38.516Z,19.84
2022-08-03T01:49:09.737Z,20.01
2022-08-03T01:52:03.702Z,19.83
2022-08-03T01:54:29.012Z,19.91
2022-08-03T01:56:59.081Z,19.81
2022-08-03T01:59:27.775Z,19.72
2022-08-03T02:02:15.355Z,19.89
2022-08-03T02:04:45.420Z,19.96
2022-08-03T02:07:13.973Z,19.77
2022-08-03T02:09:50.197Z,19.83
2022-08-03T02:12:19.187Z,19.88
2022-08-03T02:14:48.789Z,19.83
2022-08-03T02:17:16.565Z,19.88
2022-08-03T02:19:45.437Z,19.93
2022-08-03T02:22:14.903Z,19.96
2022-08-03T02:24:42.007Z,19.93
2022-08-03T02:27:22.233Z,19.98
2022-08-03T02:29:56.481Z,20.09
2022-08-03T02:32:34.625Z,20.03
2022-08-03T02:35:03.872Z,20.17
2022-08-03T02:37:37.578Z,20.18
2022-08-03T02:40:11.781Z,20.39
2022-08-03T02:42:40.306Z,20.23
2022-08-03T02:45:11.108Z,20.44
2022-08-03T02:47:54.147Z,20.37
2022-08-03T02:50:23.877Z,20.74
2022-08-03T02:52:53.013Z,20.84
2022-08-03T02:55:25.056Z,20.91
2022-08-03T02:57:52.681Z,21.09
2022-08-03T03:00:28.240Z,21.13
2022-08-03T03:02:58.898Z,21.51
2022-08-03T03:05:56.153Z,23.16
2022-08-03T03:08:20.972Z,24.53
2022-08-03T03:10:55.445Z,25.80
2022-08-03T03:13:23.722Z,27.20
2022-08-03T03:15:52.151Z,28.17
2022-08-03T03:18:22.878Z,28.58
2022-08-03T03:20:53.068Z,29.06
2022-08-03T03:23:22.390Z,29.70
2022-08-03T03:25:50.253Z,30.27
2022-08-03T03:28:17.432Z,30.89
2022-08-03T03:30:44.542Z,31.19
2022-08-03T03:33:19.854Z,31.57
2022-08-03T03:35:47.377Z,32.52
2022-08-03T03:38:14.579Z,32.36
2022-08-03T03:40:41.979Z,32.77
2022-08-03T03:43:10.757Z,33.71
2022-08-03T03:45:40.497Z,33.15
2022-08-03T03:48:08.799Z,31.85
2022-08-03T03:50:37.451Z,31.00
2022-08-03T03:53:04.783Z,30.81
2022-08-03T03:55:31.664Z,31.97
2022-08-03T03:57:58.624Z,32.76
2022-08-03T04:00:25.501Z,33.09
2022-08-03T04:02:52.589Z,33.99
2022-08-03T04:05:19.469Z,34.04
2022-08-03T04:08:03.546Z,34.23
2022-08-03T04:10:34.456Z,33.59
2022-08-03T04:13:04.181Z,33.29
2022-08-03T04:15:33.223Z,32.87
2022-08-03T04:18:01.723Z,32.54
2022-08-03T04:20:32.562Z,33.07
2022-08-03T04:23:01.698Z,32.45
2022-08-03T04:25:32.928Z,32.69
2022-08-03T04:28:29.400Z,32.63
2022-08-03T04:30:50.545Z,33.22
2022-08-03T04:33:19.460Z,33.00
2022-08-03T04:36:01.145Z,33.43
2022-08-03T04:38:32.998Z,33.34
2022-08-03T04:41:00.721Z,33.90
2022-08-03T04:43:28.956Z,33.55
2022-08-03T04:45:57.180Z,32.38
2022-08-03T04:48:24.849Z,31.38
2022-08-03T04:50:52.625Z,31.37
2022-08-03T04:53:19.755Z,30.79
2022-08-03T04:55:46.666Z,30.05
2022-08-03T04:58:13.715Z,29.21
2022-08-03T05:00:40.621Z,28.91
2022-08-03T05:03:20.433Z,28.99
2022-08-03T05:06:06.597Z,28.53
2022-08-03T05:08:45.260Z,27.94
2022-08-03T05:11:14.369Z,27.99
2022-08-03T05:13:41.230Z,27.72
2022-08-03T05:16:08.116Z,27.55
2022-08-03T05:18:34.979Z,27.51
2022-08-03T05:21:02.030Z,27.04
2022-08-03T05:23:28.934Z,27.25
2022-08-03T05:25:55.863Z,27.30
2022-08-03T05:28:22.814Z,27.12
2022-08-03T05:30:49.694Z,27.10
2022-08-03T05:33:16.565Z,27.11
2022-08-03T05:36:02.253Z,26.76
2022-08-03T05:38:34.778Z,26.51
2022-08-03T05:41:22.580Z,26.87
2022-08-03T05:43:55.055Z,26.76
2022-08-03T05:46:23.092Z,26.35
2022-08-03T05:48:50.299Z,26.62
2022-08-03T05:51:17.318Z,26.96
2022-08-03T05:53:44.916Z,27.10
2022-08-03T05:56:13.698Z,26.97
2022-08-03T05:58:48.573Z,26.55
2022-08-03T06:01:16.736Z,26.71
2022-08-03T06:03:44.924Z,26.66
2022-08-03T06:06:12.237Z,26.40
2022-08-03T06:08:40.120Z,26.68
2022-08-03T06:11:07.307Z,26.52
2022-08-03T06:13:34.505Z,26.74
2022-08-03T06:16:01.624Z,26.65
2022-08-03T06:18:28.657Z,26.42
2022-08-03T06:20:55.901Z,26.62
2022-08-03T06:23:25.339Z,26.64
2022-08-03T06:26:09.976Z,26.86
2022-08-03T06:28:52.758Z,26.85
2022-08-03T06:31:22.405Z,27.05
2022-08-03T06:34:34.303Z,27.16
2022-08-03T06:36:36.664Z,27.29
2022-08-03T06:39:06.021Z,27.48
2022-08-03T06:41:37.247Z,27.52
2022-08-03T06:44:08.277Z,27.48
2022-08-03T06:46:37.216Z,27.61
2022-08-03T06:49:04.463Z,27.74
2022-08-03T06:52:03.527Z,28.09
2022-08-03T06:54:26.016Z,28.45
2022-08-03T06:56:53.033Z,28.55
2022-08-03T07:00:10.873Z,28.77
2022-08-03T07:02:11.890Z,28.83
2022-08-03T07:04:45.297Z,28.91
2022-08-03T07:07:12.098Z,28.89
2022-08-03T07:09:59.037Z,28.73
2022-08-03T07:12:30.019Z,28.74
2022-08-03T07:15:01.129Z,29.28
2022-08-03T07:17:33.152Z,28.84
2022-08-03T07:20:01.546Z,29.04
2022-08-03T07:22:28.576Z,29.45
2022-08-03T07:24:55.598Z,29.24
2022-08-03T07:27:22.825Z,29.86
2022-08-03T07:29:49.858Z,29.92
2022-08-03T07:32:16.910Z,29.41
2022-08-03T07:34:44.006Z,29.52
2022-08-03T07:37:10.849Z,30.04
2022-08-03T07:39:37.790Z,29.78
2022-08-03T07:42:04.594Z,29.85
2022-08-03T07:44:54.163Z,29.38
2022-08-03T07:47:24.192Z,29.63
2022-08-03T07:49:51.652Z,29.62
2022-08-03T07:52:19.039Z,29.34
2022-08-03T07:54:59.394Z,29.88
2022-08-03T07:57:26.393Z,29.89
2022-08-03T08:00:01.361Z,30.01
2022-08-03T08:02:38.905Z,30.04
2022-08-03T08:05:06.231Z,29.74
2022-08-03T08:07:33.442Z,29.98
2022-08-03T08:10:00.373Z,29.64
2022-08-03T08:12:27.214Z,29.36
2022-08-03T08:14:54.107Z,29.45
2022-08-03T08:17:20.960Z,29.39
2022-08-03T08:19:51.578Z,29.39
2022-08-03T08:22:26.531Z,29.60
2022-08-03T08:24:58.968Z,29.25
2022-08-03T08:27:26.322Z,29.43
2022-08-03T08:29:55.775Z,29.21
2022-08-03T08:32:25.901Z,29.49
2022-08-03T08:34:52.693Z,29.64
2022-08-03T08:37:19.548Z,29.40
2022-08-03T08:39:46.403Z,29.32
2022-08-03T08:42:13.373Z,29.11
2022-08-03T08:44:40.221Z,29.23
2022-08-03T08:47:08.516Z,29.36
2022-08-03T08:49:38.435Z,29.76
2022-08-03T08:52:25.307Z,30.10
2022-08-03T08:55:20.591Z,29.65
2022-08-03T08:57:58.980Z,29.77
2022-08-03T09:00:25.873Z,29.69
2022-08-03T09:02:52.800Z,29.45
2022-08-03T09:05:27.807Z,29.65
2022-08-03T09:08:07.537Z,29.90
2022-08-03T09:10:54.616Z,30.41
2022-08-03T09:13:21.912Z,30.37
2022-08-03T09:16:00.827Z,30.13
2022-08-03T09:18:32.773Z,30.09
2022-08-03T09:21:33.239Z,30.47
2022-08-03T09:24:05.890Z,30.25
2022-08-03T09:26:37.894Z,30.39
2022-08-03T09:29:15.003Z,30.50
2022-08-03T09:31:44.321Z,30.77
2022-08-03T09:34:14.722Z,30.62
2022-08-03T09:36:44.642Z,30.59
2022-08-03T09:39:13.857Z,30.39
2022-08-03T09:41:42.987Z,29.99
2022-08-03T09:44:24.553Z,29.98
2022-08-03T09:46:56.388Z,30.23
2022-08-03T09:49:24.956Z,29.97
2022-08-03T09:52:30.062Z,30.39
2022-08-03T09:54:41.062Z,29.94
2022-08-03T09:57:08.232Z,30.35
2022-08-03T09:59:35.528Z,30.19
2022-08-03T10:02:20.183Z,30.66
2022-08-03T10:04:47.814Z,30.47
2022-08-03T10:07:14.600Z,30.75
2022-08-03T10:09:54.225Z,30.90
2022-08-03T10:12:21.855Z,31.29
2022-08-03T10:14:48.876Z,30.98
2022-08-03T10:17:16.157Z,30.77
2022-08-03T10:20:06.702Z,30.91
2022-08-03T10:22:36.554Z,30.68
2022-08-03T10:25:24.557Z,30.86
2022-08-03T10:28:02.984Z,31.02
2022-08-03T10:30:32.206Z,31.07
2022-08-03T10:33:49.270Z,31.08
2022-08-03T10:36:00.160Z,30.90
2022-08-03T10:38:37.474Z,31.32
2022-08-03T10:41:07.677Z,31.72
2022-08-03T10:43:45.868Z,31.79
2022-08-03T10:46:15.893Z,31.40
2022-08-03T10:48:45.683Z,31.29
2022-08-03T10:51:13.644Z,31.25
2022-08-03T10:53:44.026Z,31.57
2022-08-03T10:56:50.290Z,31.69
2022-08-03T10:59:27.912Z,31.78
2022-08-03T11:02:00.405Z,32.05
2022-08-03T11:04:29.992Z,32.12
2022-08-03T11:07:36.792Z,32.20
2022-08-03T11:10:07.784Z,32.08
2022-08-03T11:12:37.651Z,32.18
2022-08-03T11:15:07.593Z,31.38
2022-08-03T11:18:11.245Z,31.89
2022-08-03T11:20:58.841Z,31.74
2022-08-03T11:24:16.625Z,32.08
2022-08-03T11:27:15.364Z,31.13
2022-08-03T11:30:09.540Z,31.24
2022-08-03T11:33:05.665Z,31.34
2022-08-03T11:35:34.173Z,31.31
2022-08-03T11:38:03.208Z,30.97
2022-08-03T11:40:50.628Z,30.81
2022-08-03T11:43:26.749Z,30.50
2022-08-03T11:46:13.497Z,30.38
2022-08-03T11:49:10.013Z,30.68
2022-08-03T11:51:38.384Z,30.50
2022-08-03T11:54:19.944Z,31.03
2022-08-03T11:56:50.618Z,30.80
2022-08-03T11:59:21.841Z,31.00
2022-08-03T12:02:06.110Z,31.00
2022-08-03T12:04:59.026Z,31.12
2022-08-03T12:08:03.338Z,31.26
2022-08-03T12:10:16.233Z,31.18
2022-08-03T12:12:46.277Z,31.49
2022-08-03T12:15:13.842Z,31.06
2022-08-03T12:17:41.505Z,31.27
2022-08-03T12:20:10.369Z,31.60
2022-08-03T12:22:39.564Z,31.71
2022-08-03T12:25:08.677Z,31.71
2022-08-03T12:27:36.564Z,31.57
2022-08-03T12:30:04.234Z,31.18
2022-08-03T12:32:31.636Z,30.92
2022-08-03T12:35:00.273Z,31.13
2022-08-03T12:37:27.575Z,31.23
2022-08-03T12:40:01.699Z,30.90
2022-08-03T12:42:34.850Z,30.67
2022-08-03T12:45:23.270Z,31.08
2022-08-03T12:47:58.108Z,30.89
2022-08-03T12:50:32.171Z,30.77
2022-08-03T12:53:30.588Z,30.70
2022-08-03T12:56:05.705Z,30.37
2022-08-03T12:58:35.933Z,30.30
2022-08-03T13:01:10.041Z,30.03
2022-08-03T13:03:42.562Z,29.72
2022-08-03T13:06:18.116Z,29.84
2022-08-03T13:08:45.959Z,29.67
2022-08-03T13:11:50.661Z,29.39
2022-08-03T13:14:19.767Z,29.25
2022-08-03T13:16:49.777Z,29.16
2022-08-03T13:19:16.623Z,29.25
2022-08-03T13:22:02.139Z,29.15
2022-08-03T13:24:32.421Z,29.01
2022-08-03T13:27:00.125Z,29.34
2022-08-03T13:29:27.136Z,29.00
2022-08-03T13:31:54.077Z,29.12
2022-08-03T13:34:23.962Z,29.04
2022-08-03T13:39:57.296Z,29.64
2022-08-03T13:42:30.644Z,29.94
2022-08-03T13:44:58.114Z,29.55
2022-08-03T13:47:25.653Z,29.41
2022-08-03T13:49:54.246Z,29.62
2022-08-03T13:52:30.381Z,29.46
2022-08-03T13:54:57.206Z,29.57
2022-08-03T13:58:03.733Z,29.68
2022-08-03T14:00:11.614Z,29.31
2022-08-03T14:02:38.506Z,29.00
2022-08-03T14:05:05.861Z,29.44
2022-08-03T14:07:32.699Z,29.16
2022-08-03T14:10:12.979Z,29.34
2022-08-03T14:12:39.929Z,29.36
2022-08-03T14:15:07.596Z,28.98
2022-08-03T14:17:42.312Z,28.64
2022-08-03T14:20:36.254Z,28.39
2022-08-03T14:23:03.727Z,28.73
2022-08-03T14:25:56.819Z,28.58
2022-08-03T14:28:24.370Z,28.61
2022-08-03T14:30:52.769Z,28.26
2022-08-03T14:33:20.019Z,28.58
2022-08-03T14:35:47.191Z,28.59
2022-08-03T14:38:14.457Z,28.63
2022-08-03T14:40:41.613Z,28.59
2022-08-03T14:43:08.828Z,28.54
2022-08-03T14:45:35.931Z,28.60
2022-08-03T14:50:24.948Z,28.48
2022-08-03T14:50:51.933Z,28.18
2022-08-03T14:53:19.485Z,28.39
2022-08-03T14:55:51.770Z,28.54
2022-08-03T14:58:21.429Z,28.43
2022-08-03T15:00:50.492Z,28.57
2022-08-03T15:03:18.667Z,28.54
2022-08-03T15:05:45.627Z,28.38
2022-08-03T15:08:12.541Z,28.39
2022-08-03T15:10:40.386Z,28.27
2022-08-03T15:13:13.081Z,28.34
2022-08-03T15:15:40.442Z,28.29
2022-08-03T15:18:09.283Z,28.38
2022-08-03T15:20:45.433Z,28.22
2022-08-03T15:23:15.691Z,28.07
2022-08-03T15:26:32.241Z,28.18
2022-08-03T15:28:33.985Z,28.01
2022-08-03T15:31:04.452Z,27.92
2022-08-03T15:33:31.333Z,27.54
2022-08-03T15:36:01.262Z,27.72
2022-08-03T15:38:28.444Z,27.82
2022-08-03T15:40:55.329Z,27.86
2022-08-03T15:43:23.327Z,27.82
2022-08-03T15:46:12.702Z,27.72
2022-08-03T15:48:37.714Z,27.35
2022-08-03T15:51:05.156Z,27.49
2022-08-03T15:53:32.530Z,27.44
2022-08-03T15:55:59.692Z,27.49
2022-08-03T15:59:07.661Z,27.56
2022-08-03T16:01:20.090Z,27.35
2022-08-03T16:03:47.328Z,27.44
2022-08-03T16:06:19.403Z,27.28
2022-08-03T16:08:57.125Z,27.15
2022-08-03T16:11:24.030Z,27.07
2022-08-03T16:14:13.851Z,26.93
2022-08-03T16:16:40.063Z,27.01
2022-08-03T16:19:27.144Z,26.96
2022-08-03T16:21:54.139Z,26.91
2022-08-03T16:24:27.727Z,26.92
2022-08-03T16:26:55.652Z,26.83
2022-08-03T16:29:23.437Z,26.87
2022-08-03T16:31:52.161Z,26.92
2022-08-03T16:34:31.273Z,26.99
2022-08-03T16:36:58.210Z,26.76
2022-08-03T16:39:25.379Z,26.70
2022-08-03T16:41:54.208Z,26.58
2022-08-03T16:44:29.592Z,26.60
2022-08-03T16:46:56.547Z,26.57
2022-08-03T16:49:54.806Z,26.41
2022-08-03T16:52:24.215Z,26.33
2022-08-03T16:54:53.651Z,26.22
2022-08-03T16:57:56.765Z,26.28
2022-08-03T17:00:11.724Z,26.17
2022-08-03T17:02:48.029Z,26.02
2022-08-03T17:05:47.460Z,26.12
2022-08-03T17:08:15.375Z,25.96
2022-08-03T17:10:45.051Z,25.69
2022-08-03T17:13:22.676Z,25.46
2022-08-03T17:16:00.595Z,25.54
2022-08-03T17:18:33.831Z,25.39
2022-08-03T17:21:06.669Z,25.21
2022-08-03T17:23:57.641Z,25.20
2022-08-03T17:26:30.374Z,25.08
2022-08-03T17:29:12.696Z,24.94
2022-08-03T17:31:48.529Z,24.94
2022-08-03T17:34:17.587Z,24.87
2022-08-03T17:39:57.670Z,24.60
2022-08-03T17:42:29.092Z,24.51
2022-08-03T17:45:52.778Z,24.34
2022-08-03T17:48:25.034Z,24.36
2022-08-03T17:51:02.522Z,24.26
2022-08-03T17:53:35.725Z,24.07
2022-08-03T17:56:44.537Z,24.11
2022-08-03T17:59:09.863Z,23.90
2022-08-03T18:02:03.368Z,23.92
2022-08-03T18:04:41.825Z,23.85
2022-08-03T18:07:11.785Z,23.63
2022-08-03T18:10:06.657Z,23.71
2022-08-03T18:12:40.314Z,23.64
2022-08-03T18:15:20.956Z,23.74
2022-08-03T18:17:55.804Z,23.68
2022-08-03T18:20:32.966Z,23.66
2022-08-03T18:23:06.158Z,23.62
2022-08-03T18:25:45.815Z,23.64
2022-08-03T18:28:19.261Z,23.53
2022-08-03T18:30:54.563Z,23.53
2022-08-03T18:34:19.464Z,23.54
2022-08-03T18:36:22.133Z,23.64
2022-08-03T18:38:59.436Z,23.56
2022-08-03T18:41:32.716Z,23.57
2022-08-03T18:44:08.944Z,23.33
2022-08-03T18:47:07.465Z,23.42
2022-08-03T18:50:19.715Z,23.44
2022-08-03T18:52:52.831Z,23.49
2022-08-03T18:55:33.415Z,23.40
2022-08-03T18:58:09.985Z,23.28
2022-08-03T19:00:58.684Z,23.42
2022-08-03T19:03:41.497Z,23.37
2022-08-03T19:06:21.686Z,23.39
2022-08-03T19:08:55.706Z,23.49
2022-08-03T19:12:12.764Z,23.39
2022-08-03T19:14:42.234Z,23.45
2022-08-03T19:17:11.790Z,23.46
2022-08-03T19:19:45.032Z,23.36
2022-08-03T19:22:16.029Z,23.43
2022-08-03T19:24:46.050Z,23.30
2022-08-03T19:27:14.117Z,23.18
2022-08-03T19:29:57.879Z,23.22
2022-08-03T19:32:28.670Z,23.10
2022-08-03T19:35:51.720Z,23.11
2022-08-03T19:38:14.878Z,22.76
2022-08-03T19:40:59.787Z,22.86
2022-08-03T19:43:53.986Z,22.69
2022-08-03T19:46:30.825Z,22.62
2022-08-03T19:49:15.012Z,22.72
2022-08-03T19:52:02.344Z,22.61
2022-08-03T19:54:52.818Z,22.75
2022-08-03T19:57:24.142Z,22.70
2022-08-03T19:59:53.935Z,22.55
2022-08-03T20:02:26.540Z,22.55
2022-08-03T20:04:59.981Z,22.62
2022-08-03T20:07:31.094Z,22.59
2022-08-03T20:09:59.654Z,22.56
2022-08-03T20:12:30.645Z,22.55
2022-08-03T20:15:00.413Z,22.41
2022-08-03T20:17:55.254Z,22.27
2022-08-03T20:20:19.715Z,22.40
2022-08-03T20:22:48.236Z,22.44
2022-08-03T20:25:20.931Z,22.55
2022-08-03T20:28:07.950Z,22.46
2022-08-03T20:30:43.424Z,22.43
2022-08-03T20:33:11.023Z,22.43
2022-08-03T20:35:38.626Z,22.28
2022-08-03T20:38:09.065Z,22.26
2022-08-03T20:40:36.662Z,22.20
2022-08-03T20:43:05.129Z,22.30
2022-08-03T20:45:59.550Z,22.33
2022-08-03T20:48:22.005Z,22.33
2022-08-03T20:50:49.720Z,22.26
2022-08-03T20:53:20.935Z,22.08
2022-08-03T20:56:04.852Z,21.93
2022-08-03T20:58:33.319Z,22.02
2022-08-03T21:01:01.178Z,22.01
2022-08-03T21:03:40.653Z,22.04
2022-08-03T21:06:18.884Z,21.97
2022-08-03T21:09:04.119Z,21.93
2022-08-03T21:11:43.748Z,21.83
2022-08-03T21:14:19.121Z,21.79
2022-08-03T21:16:50.647Z,21.63
2022-08-03T21:19:20.251Z,21.63
2022-08-03T21:21:47.994Z,21.69
2022-08-03T21:24:15.397Z,21.82
2022-08-03T21:26:45.997Z,21.57
2022-08-03T21:29:13.260Z,21.57
2022-08-03T21:31:40.691Z,21.67
2022-08-03T21:34:07.551Z,21.84
2022-08-03T21:36:36.483Z,21.86
2022-08-03T21:39:06.590Z,21.71
2022-08-03T21:41:34.655Z,21.97
2022-08-03T21:44:02.594Z,21.92
2022-08-03T21:46:39.198Z,22.00
2022-08-03T21:50:07.809Z,22.03
2022-08-03T21:51:59.137Z,21.93
2022-08-03T21:54:40.849Z,21.95
2022-08-03T21:57:18.630Z,22.10
2022-08-03T21:59:53.104Z,22.23
2022-08-03T22:02:22.831Z,22.21
2022-08-03T22:04:56.355Z,22.22
2022-08-03T22:07:26.629Z,22.17
2022-08-03T22:09:55.857Z,22.32
2022-08-03T22:12:26.730Z,22.38
2022-08-03T22:15:00.741Z,22.37
2022-08-03T22:17:55.036Z,22.12
2022-08-03T22:20:21.596Z,22.13
2022-08-03T22:22:55.019Z,22.11
2022-08-03T22:25:26.312Z,22.20
2022-08-03T22:27:54.561Z,22.18
2022-08-03T22:30:21.648Z,22.15
2022-08-03T22:32:51.996Z,22.32
2022-08-03T22:35:21.239Z,22.32
2022-08-03T22:37:53.892Z,22.33
2022-08-03T22:40:21.561Z,22.34
2022-08-03T22:42:49.221Z,22.34
2022-08-03T22:46:07.517Z,22.24
2022-08-03T22:48:07.339Z,22.23
2022-08-03T22:50:34.904Z,22.23
2022-08-03T22:53:02.075Z,22.21
2022-08-03T22:55:29.535Z,22.10
2022-08-03T22:57:56.639Z,22.19
2022-08-03T23:00:24.261Z,22.30
2022-08-03T23:02:53.587Z,22.33
2022-08-03T23:06:02.508Z,22.35
2022-08-03T23:08:20.554Z,22.32
2022-08-03T23:10:48.620Z,22.36
2022-08-03T23:13:19.633Z,22.40
2022-08-03T23:15:54.070Z,22.58
2022-08-03T23:18:28.287Z,22.42
2022-08-03T23:20:58.876Z,22.55
2022-08-03T23:23:26.189Z,22.50
2022-08-03T23:25:53.273Z,22.44
2022-08-03T23:28:20.881Z,22.32
2022-08-03T23:30:50.390Z,22.25
2022-08-03T23:33:18.165Z,22.20
2022-08-03T23:36:18.754Z,22.21
2022-08-03T23:38:36.020Z,22.32
2022-08-03T23:41:05.219Z,22.16
2022-08-03T23:43:53.797Z,21.97
2022-08-03T23:46:25.902Z,21.96
2022-08-03T23:48:56.415Z,22.09
2022-08-03T23:51:31.601Z,22.17
2022-08-03T23:54:06.348Z,22.10
2022-08-03T23:56:48.075Z,22.06
2022-08-03T23:59:28.152Z,22.09
